createdAt,value
2023-05-15T00:00:11.742Z,0.00
2023-05-15T00:01:11.732Z,0.00
2023-05-15T00:02:11.746Z,0.00
2023-05-15T00:03:11.855Z,0.00
2023-05-15T00:04:11.730Z,0.00
2023-05-15T00:05:11.774Z,0.00
2023-05-15T00:06:11.700Z,0.00
2023-05-15T00:07:11.700Z,0.00
2023-05-15T00:08:11.698Z,0.00
2023-05-15T00:09:11.686Z,0.00
2023-05-15T00:10:11.674Z,0.00
2023-05-15T00:11:11.660Z,0.00
2023-05-15T00:12:11.667Z,0.00
2023-05-15T00:13:11.657Z,0.00
2023-05-15T00:14:11.640Z,0.00
2023-05-15T00:15:11.643Z,0.00
2023-05-15T00:16:11.760Z,0.00
2023-05-15T00:17:11.616Z,0.00
2023-05-15T00:18:11.647Z,0.00
2023-05-15T00:19:11.668Z,0.00
2023-05-15T00:20:11.604Z,0.00
2023-05-15T00:21:11.598Z,0.00
2023-05-15T00:22:11.602Z,0.00
2023-05-15T00:23:11.578Z,0.00
2023-05-15T00:24:11.567Z,0.00
2023-05-15T00:25:11.559Z,0.00
2023-05-15T00:26:11.558Z,0.00
2023-05-15T00:27:11.550Z,0.00
2023-05-15T00:28:11.545Z,0.00
2023-05-15T00:29:11.541Z,0.00
2023-05-15T00:30:11.535Z,0.00
2023-05-15T00:31:11.549Z,0.00
2023-05-15T00:32:11.516Z,0.00
2023-05-15T00:33:11.512Z,0.00
2023-05-15T00:34:11.504Z,0.00
2023-05-15T00:35:11.497Z,0.00
2023-05-15T00:36:11.525Z,0.00
2023-05-15T00:37:11.481Z,0.00
2023-05-15T00:38:11.475Z,0.00
2023-05-15T00:39:11.474Z,0.00
2023-05-15T00:40:11.466Z,0.00
2023-05-15T00:41:11.463Z,0.00
2023-05-15T00:42:11.450Z,0.00
2023-05-15T00:43:11.441Z,0.00
2023-05-15T00:44:11.446Z,0.00
2023-05-15T00:45:11.428Z,0.00
2023-05-15T00:46:11.437Z,0.00
2023-05-15T00:47:11.506Z,0.00
2023-05-15T00:48:11.406Z,0.00
2023-05-15T00:49:11.399Z,0.00
2023-05-15T00:50:11.402Z,0.00
2023-05-15T00:51:11.380Z,0.00
2023-05-15T00:52:11.379Z,0.00
2023-05-15T00:53:11.368Z,0.00
2023-05-15T00:54:11.430Z,0.00
2023-05-15T00:55:11.363Z,0.00
2023-05-15T00:56:11.354Z,0.00
2023-05-15T00:57:11.345Z,0.00
2023-05-15T00:58:11.358Z,0.00
2023-05-15T00:59:11.328Z,0.00
2023-05-15T01:00:11.359Z,0.00
2023-05-15T01:01:11.377Z,0.00
2023-05-15T01:02:11.354Z,0.00
2023-05-15T01:03:11.468Z,0.00
2023-05-15T01:04:11.290Z,0.00
2023-05-15T01:05:11.285Z,0.00
2023-05-15T01:06:11.275Z,0.00
2023-05-15T01:07:11.274Z,0.00
2023-05-15T01:08:11.283Z,0.00
2023-05-15T01:09:11.270Z,0.00
2023-05-15T01:10:11.247Z,0.00
2023-05-15T01:11:11.242Z,0.00
2023-05-15T01:12:11.246Z,0.00
2023-05-15T01:13:11.226Z,0.00
2023-05-15T01:14:11.219Z,0.00
2023-05-15T01:15:11.233Z,0.00
2023-05-15T01:16:11.208Z,0.00
2023-05-15T01:17:11.273Z,0.00
2023-05-15T01:18:11.253Z,0.00
2023-05-15T01:19:11.328Z,0.00
2023-05-15T01:20:11.180Z,0.00
2023-05-15T01:21:11.163Z,0.00
2023-05-15T01:22:11.176Z,0.00
2023-05-15T01:24:53.856Z,0.00
2023-05-15T01:25:53.842Z,0.00
2023-05-15T01:27:57.820Z,0.00
2023-05-15T01:28:57.806Z,0.00
2023-05-15T01:31:01.782Z,0.00
2023-05-15T01:32:01.790Z,0.00
2023-05-15T01:34:05.735Z,0.00
2023-05-15T01:35:05.734Z,0.00
2023-05-15T01:37:09.701Z,0.00
2023-05-15T01:38:09.682Z,0.00
2023-05-15T01:40:02.611Z,0.00
2023-05-15T01:41:02.574Z,0.00
2023-05-15T01:43:06.554Z,0.00
2023-05-15T01:44:06.543Z,0.00
2023-05-15T01:46:10.531Z,0.00
2023-05-15T01:47:10.513Z,0.00
2023-05-15T01:49:15.086Z,0.00
2023-05-15T01:50:14.876Z,0.00
2023-05-15T01:52:18.711Z,0.00
2023-05-15T01:53:18.691Z,0.00
2023-05-15T01:55:22.807Z,0.00
2023-05-15T01:56:22.672Z,0.00
2023-05-15T01:58:26.630Z,0.00
2023-05-15T01:59:26.604Z,0.00
2023-05-15T02:01:30.644Z,0.00
2023-05-15T02:02:30.697Z,0.00
2023-05-15T02:04:34.570Z,0.00
2023-05-15T02:05:34.541Z,0.00
2023-05-15T02:07:38.518Z,0.00
2023-05-15T02:08:38.497Z,0.00
2023-05-15T02:10:42.472Z,0.00
2023-05-15T02:11:42.477Z,0.00
2023-05-15T02:13:46.444Z,0.00
2023-05-15T02:14:46.414Z,0.00
2023-05-15T02:16:50.410Z,0.00
2023-05-15T02:17:50.404Z,0.00
2023-05-15T02:19:43.277Z,0.00
2023-05-15T02:20:43.260Z,0.00
2023-05-15T02:22:47.234Z,0.00
2023-05-15T02:23:47.214Z,0.00
2023-05-15T02:25:51.187Z,0.00
2023-05-15T02:26:51.189Z,0.00
2023-05-15T02:28:55.205Z,0.00
2023-05-15T02:29:55.133Z,0.00
2023-05-15T02:31:59.161Z,0.00
2023-05-15T02:32:59.132Z,0.00
2023-05-15T02:35:03.058Z,4.00
2023-05-15T02:36:03.056Z,4.00
2023-05-15T02:38:07.023Z,0.00
2023-05-15T02:39:07.003Z,4.00
2023-05-15T02:41:10.989Z,4.00
2023-05-15T02:42:10.967Z,4.00
2023-05-15T02:44:14.939Z,8.00
2023-05-15T02:45:14.930Z,8.00
2023-05-15T02:47:18.908Z,12.00
2023-05-15T02:48:18.880Z,12.00
2023-05-15T02:50:11.792Z,12.00
2023-05-15T02:51:11.802Z,16.00
2023-05-15T02:53:15.746Z,16.00
2023-05-15T02:54:15.731Z,24.00
2023-05-15T02:56:19.706Z,28.00
2023-05-15T02:57:19.683Z,32.00
2023-05-15T02:59:23.651Z,36.00
2023-05-15T03:00:23.642Z,44.00
2023-05-15T03:02:27.641Z,56.00
2023-05-15T03:03:27.597Z,60.00
2023-05-15T03:05:31.577Z,72.00
2023-05-15T03:06:31.604Z,80.00
2023-05-15T03:08:35.536Z,96.00
2023-05-15T03:09:35.527Z,104.00
2023-05-15T03:11:39.494Z,128.00
2023-05-15T03:12:39.472Z,136.00
2023-05-15T03:14:43.458Z,160.00
2023-05-15T03:15:43.443Z,172.00
2023-05-15T03:17:47.426Z,204.00
2023-05-15T03:18:47.951Z,216.00
2023-05-15T03:20:51.370Z,248.00
2023-05-15T03:21:51.365Z,268.00
2023-05-15T03:23:55.325Z,304.00
2023-05-15T03:24:55.308Z,320.00
2023-05-15T03:26:59.282Z,360.00
2023-05-15T03:27:59.264Z,384.00
2023-05-15T03:29:52.200Z,432.00
2023-05-15T03:30:52.165Z,460.00
2023-05-15T03:32:56.183Z,524.00
2023-05-15T03:33:56.112Z,556.00
2023-05-15T03:36:00.113Z,628.00
2023-05-15T03:37:00.069Z,660.00
2023-05-15T03:39:04.039Z,712.00
2023-05-15T03:40:04.022Z,744.00
2023-05-15T03:42:08.012Z,816.00
2023-05-15T03:43:07.975Z,844.00
2023-05-15T03:45:11.943Z,916.00
2023-05-15T03:46:12.798Z,972.00
2023-05-15T03:48:15.906Z,1072.00
2023-05-15T03:49:15.892Z,1180.00
2023-05-15T03:51:19.863Z,1304.00
2023-05-15T03:52:19.839Z,1332.00
2023-05-15T03:54:23.812Z,1440.00
2023-05-15T03:55:23.914Z,1540.00
2023-05-15T03:57:27.782Z,1692.00
2023-05-15T03:58:27.760Z,1780.00
2023-05-15T04:00:20.664Z,1936.00
2023-05-15T04:01:20.644Z,2036.00
2023-05-15T04:03:24.924Z,2208.00
2023-05-15T04:04:24.605Z,2280.00
2023-05-15T04:06:28.581Z,2436.00
2023-05-15T04:07:28.564Z,2524.00
2023-05-15T04:09:32.535Z,2672.00
2023-05-15T04:10:32.521Z,2748.00
2023-05-15T04:12:36.502Z,2924.00
2023-05-15T04:13:36.483Z,2996.00
2023-05-15T04:15:40.470Z,3152.00
2023-05-15T04:16:40.471Z,3224.00
2023-05-15T04:18:44.449Z,3392.00
2023-05-15T04:19:44.393Z,3476.00
2023-05-15T04:21:48.372Z,3652.00
2023-05-15T04:22:48.363Z,3732.00
2023-05-15T04:24:52.338Z,3880.00
2023-05-15T04:25:52.312Z,3948.00
2023-05-15T04:27:56.306Z,4076.00
2023-05-15T04:29:03.526Z,4148.00
2023-05-15T04:31:00.269Z,4284.00
2023-05-15T04:32:00.310Z,4356.00
2023-05-15T04:34:04.217Z,4496.00
2023-05-15T04:35:04.197Z,4564.00
2023-05-15T04:37:08.169Z,4724.00
2023-05-15T04:38:08.158Z,4784.00
2023-05-15T04:40:01.072Z,4856.00
2023-05-15T04:41:01.062Z,4920.00
2023-05-15T04:43:05.048Z,5028.00
2023-05-15T04:44:05.029Z,5128.00
2023-05-15T04:46:09.037Z,5264.00
2023-05-15T04:47:08.995Z,5264.00
2023-05-15T04:49:12.987Z,5276.00
2023-05-15T04:50:12.965Z,5320.00
2023-05-15T04:52:16.945Z,5444.00
2023-05-15T04:53:16.935Z,5488.00
2023-05-15T04:55:20.941Z,5532.00
2023-05-15T04:56:20.901Z,5588.00
2023-05-15T04:58:24.900Z,5596.00
2023-05-15T04:59:24.869Z,5620.00
2023-05-15T05:01:28.908Z,5800.00
2023-05-15T05:02:28.870Z,5908.00
2023-05-15T05:04:32.814Z,6116.00
2023-05-15T05:05:32.897Z,6216.00
2023-05-15T05:07:36.798Z,6120.00
2023-05-15T05:08:36.776Z,5860.00
2023-05-15T05:10:40.771Z,4660.00
2023-05-15T05:11:40.761Z,3836.00
2023-05-15T05:13:44.750Z,6332.00
2023-05-15T05:14:44.764Z,6488.00
2023-05-15T05:16:48.728Z,6572.00
2023-05-15T05:17:48.860Z,6616.00
2023-05-15T05:19:41.643Z,6680.00
2023-05-15T05:20:41.608Z,6700.00
2023-05-15T05:22:45.590Z,6696.00
2023-05-15T05:23:45.584Z,6672.00
2023-05-15T05:25:49.579Z,6668.00
2023-05-15T05:26:49.554Z,6692.00
2023-05-15T05:28:53.539Z,6772.00
2023-05-15T05:29:53.523Z,6804.00
2023-05-15T05:31:57.582Z,6840.00
2023-05-15T05:32:57.538Z,6876.00
2023-05-15T05:35:01.492Z,7152.00
2023-05-15T05:36:01.604Z,7256.00
2023-05-15T05:38:05.465Z,7236.00
2023-05-15T05:39:05.536Z,7160.00
2023-05-15T05:41:09.440Z,7200.00
2023-05-15T05:42:09.437Z,7304.00
2023-05-15T05:44:13.433Z,7580.00
2023-05-15T05:45:13.404Z,7700.00
2023-05-15T05:47:17.451Z,7940.00
2023-05-15T05:48:17.389Z,8112.00
2023-05-15T05:50:10.295Z,8600.00
2023-05-15T05:51:10.292Z,9044.00
2023-05-15T05:53:14.274Z,10436.00
2023-05-15T05:54:14.257Z,12388.00
2023-05-15T05:56:18.263Z,22528.00
2023-05-15T05:57:18.235Z,23904.00
2023-05-15T05:59:22.226Z,25248.00
2023-05-15T06:00:22.214Z,22528.00
2023-05-15T06:02:26.453Z,6852.00
2023-05-15T06:03:26.395Z,4860.00
2023-05-15T06:05:30.416Z,4056.00
2023-05-15T06:06:30.298Z,3948.00
2023-05-15T06:08:34.294Z,4096.00
2023-05-15T06:09:34.290Z,4676.00
2023-05-15T06:11:38.271Z,4968.00
2023-05-15T06:12:38.260Z,5624.00
2023-05-15T06:14:42.256Z,9216.00
2023-05-15T06:15:42.247Z,8844.00
2023-05-15T06:17:46.270Z,10380.00
2023-05-15T06:18:46.254Z,11748.00
2023-05-15T06:20:50.211Z,10340.00
2023-05-15T06:21:50.203Z,10764.00
2023-05-15T06:23:54.173Z,13280.00
2023-05-15T06:24:54.172Z,11396.00
2023-05-15T06:26:58.216Z,10796.00
2023-05-15T06:27:58.211Z,9232.00
2023-05-15T06:29:51.120Z,7968.00
2023-05-15T06:30:51.159Z,8088.00
2023-05-15T06:32:55.100Z,7348.00
2023-05-15T06:33:55.084Z,9588.00
2023-05-15T06:35:59.083Z,8172.00
2023-05-15T06:36:59.066Z,8692.00
2023-05-15T06:39:03.054Z,9096.00
2023-05-15T06:40:03.047Z,8028.00
2023-05-15T06:42:07.025Z,7924.00
2023-05-15T06:43:07.019Z,8200.00
2023-05-15T06:45:10.996Z,8880.00
2023-05-15T06:46:11.081Z,9148.00
2023-05-15T06:48:15.021Z,9500.00
2023-05-15T06:49:14.959Z,9552.00
2023-05-15T06:51:18.953Z,9352.00
2023-05-15T06:52:18.943Z,8936.00
2023-05-15T06:54:22.940Z,8780.00
2023-05-15T06:55:22.985Z,8716.00
2023-05-15T06:57:26.907Z,8992.00
2023-05-15T06:58:26.902Z,9140.00
2023-05-15T07:00:19.801Z,9524.00
2023-05-15T07:01:19.850Z,9864.00
2023-05-15T07:03:23.814Z,10376.00
2023-05-15T07:04:23.827Z,10892.00
2023-05-15T07:06:27.760Z,12208.00
2023-05-15T07:07:27.762Z,14296.00
2023-05-15T07:09:31.727Z,17408.00
2023-05-15T07:10:31.735Z,17824.00
2023-05-15T07:12:35.713Z,12268.00
2023-05-15T07:13:35.695Z,11732.00
2023-05-15T07:15:39.684Z,11876.00
2023-05-15T07:16:39.673Z,14404.00
2023-05-15T07:18:43.710Z,17856.00
2023-05-15T07:19:43.648Z,12856.00
2023-05-15T07:21:47.639Z,12796.00
2023-05-15T07:22:55.537Z,14176.00
2023-05-15T07:24:51.612Z,23584.00
2023-05-15T07:25:51.600Z,45536.00
2023-05-15T07:27:55.591Z,37504.00
2023-05-15T07:28:55.580Z,25376.00
2023-05-15T07:31:01.049Z,11296.00
2023-05-15T07:31:59.703Z,11220.00
2023-05-15T07:34:03.581Z,11548.00
2023-05-15T07:35:03.571Z,11312.00
2023-05-15T07:37:07.554Z,11088.00
2023-05-15T07:38:07.864Z,11872.00
2023-05-15T07:40:00.493Z,11840.00
2023-05-15T07:41:00.458Z,11764.00
2023-05-15T07:43:04.431Z,10064.00
2023-05-15T07:44:04.443Z,10040.00
2023-05-15T07:46:08.501Z,10240.00
2023-05-15T07:47:08.425Z,12400.00
2023-05-15T07:49:12.481Z,10996.00
2023-05-15T07:50:12.436Z,10356.00
2023-05-15T07:52:16.395Z,9644.00
2023-05-15T07:53:16.392Z,9292.00
2023-05-15T07:55:20.374Z,9228.00
2023-05-15T07:56:20.362Z,8968.00
2023-05-15T07:58:24.355Z,8720.00
2023-05-15T07:59:24.398Z,8752.00
2023-05-15T08:01:29.546Z,8568.00
2023-05-15T08:02:28.382Z,8688.00
2023-05-15T08:04:32.335Z,8628.00
2023-05-15T08:05:32.304Z,8536.00
2023-05-15T08:07:36.406Z,7860.00
2023-05-15T08:08:36.349Z,7624.00
2023-05-15T08:10:40.264Z,7096.00
2023-05-15T08:11:40.261Z,6976.00
2023-05-15T08:13:44.399Z,6812.00
2023-05-15T08:14:44.389Z,6892.00
2023-05-15T08:16:48.358Z,7680.00
2023-05-15T08:17:48.381Z,7776.00
2023-05-15T08:19:41.254Z,7104.00
2023-05-15T08:20:41.250Z,6580.00
2023-05-15T08:22:45.234Z,6056.00
2023-05-15T08:23:45.314Z,5812.00
2023-05-15T08:25:49.209Z,5456.00
2023-05-15T08:26:49.200Z,5248.00
2023-05-15T08:28:53.180Z,4844.00
2023-05-15T08:29:53.189Z,4768.00
2023-05-15T08:31:57.166Z,4784.00
2023-05-15T08:32:57.198Z,4956.00
2023-05-15T08:35:01.145Z,5504.00
2023-05-15T08:36:01.165Z,5744.00
2023-05-15T08:38:05.114Z,5664.00
2023-05-15T08:39:05.103Z,5460.00
2023-05-15T08:41:09.090Z,5220.00
2023-05-15T08:42:09.076Z,5204.00
2023-05-15T08:44:13.071Z,5412.00
2023-05-15T08:45:13.050Z,5548.00
2023-05-15T08:47:17.041Z,5844.00
2023-05-15T08:48:17.192Z,6044.00
2023-05-15T08:50:09.948Z,6480.00
2023-05-15T08:51:09.933Z,6680.00
2023-05-15T08:53:13.934Z,7280.00
2023-05-15T08:54:13.918Z,7588.00
2023-05-15T08:56:17.910Z,7732.00
2023-05-15T08:57:17.893Z,7752.00
2023-05-15T08:59:21.879Z,7612.00
2023-05-15T09:00:21.878Z,7504.00
2023-05-15T09:02:25.878Z,7200.00
2023-05-15T09:03:25.990Z,7116.00
2023-05-15T09:05:29.869Z,7064.00
2023-05-15T09:06:29.838Z,6964.00
2023-05-15T09:08:33.832Z,6596.00
2023-05-15T09:09:33.812Z,6352.00
2023-05-15T09:11:37.796Z,6024.00
2023-05-15T09:12:37.787Z,6152.00
2023-05-15T09:14:41.778Z,6932.00
2023-05-15T09:15:41.770Z,7292.00
2023-05-15T09:17:45.781Z,7816.00
2023-05-15T09:18:45.757Z,7912.00
2023-05-15T09:20:49.713Z,7820.00
2023-05-15T09:21:49.712Z,7652.00
2023-05-15T09:23:53.698Z,7400.00
2023-05-15T09:24:53.725Z,7532.00
2023-05-15T09:26:57.673Z,7796.00
2023-05-15T09:27:57.663Z,7916.00
2023-05-15T09:29:50.573Z,8248.00
2023-05-15T09:30:50.567Z,8568.00
2023-05-15T09:32:54.569Z,9508.00
2023-05-15T09:33:54.537Z,9856.00
2023-05-15T09:35:58.528Z,9788.00
2023-05-15T09:36:58.523Z,9732.00
2023-05-15T09:37:58.521Z,9820.00
2023-05-15T09:38:58.590Z,9856.00
2023-05-15T09:39:58.524Z,9688.00
2023-05-15T09:40:58.510Z,9648.00
2023-05-15T09:41:58.512Z,9704.00
2023-05-15T09:42:58.514Z,9628.00
2023-05-15T09:43:58.501Z,9044.00
2023-05-15T09:44:58.503Z,8084.00
2023-05-15T09:45:58.639Z,7580.00
2023-05-15T09:46:58.586Z,7476.00
2023-05-15T09:47:58.613Z,7416.00
2023-05-15T09:48:58.578Z,7156.00
2023-05-15T09:49:58.491Z,6588.00
2023-05-15T09:50:58.489Z,6004.00
2023-05-15T09:51:58.486Z,5648.00
2023-05-15T09:52:58.486Z,5408.00
2023-05-15T09:53:58.481Z,5220.00
2023-05-15T09:54:58.484Z,5148.00
2023-05-15T09:55:58.514Z,5152.00
2023-05-15T09:56:58.480Z,5212.00
2023-05-15T09:57:58.476Z,5220.00
2023-05-15T09:58:58.539Z,5196.00
2023-05-15T09:59:58.478Z,5216.00
2023-05-15T10:00:58.466Z,5244.00
2023-05-15T10:01:58.555Z,5280.00
2023-05-15T10:02:58.510Z,5308.00
2023-05-15T10:03:58.459Z,5316.00
2023-05-15T10:04:58.546Z,5324.00
2023-05-15T10:05:58.475Z,5300.00
2023-05-15T10:06:58.487Z,5288.00
2023-05-15T10:07:58.469Z,5324.00
2023-05-15T10:08:58.454Z,5388.00
2023-05-15T10:09:58.446Z,5444.00
2023-05-15T10:10:58.452Z,5472.00
2023-05-15T10:11:58.441Z,5504.00
2023-05-15T10:12:58.438Z,5552.00
2023-05-15T10:13:58.441Z,5580.00
2023-05-15T10:14:58.439Z,5592.00
2023-05-15T10:15:58.456Z,5572.00
2023-05-15T10:16:58.433Z,5524.00
2023-05-15T10:17:58.466Z,5452.00
2023-05-15T10:18:58.469Z,5372.00
2023-05-15T10:19:59.091Z,5320.00
2023-05-15T10:20:58.430Z,5280.00
2023-05-15T10:21:58.419Z,5272.00
2023-05-15T10:22:58.417Z,5276.00
2023-05-15T10:23:58.414Z,5260.00
2023-05-15T10:24:58.434Z,5212.00
2023-05-15T10:25:58.409Z,5100.00
2023-05-15T10:26:58.405Z,4928.00
2023-05-15T10:27:58.404Z,4728.00
2023-05-15T10:28:58.403Z,4540.00
2023-05-15T10:29:58.404Z,4328.00
2023-05-15T10:30:58.441Z,4116.00
2023-05-15T10:31:58.439Z,3936.00
2023-05-15T10:32:58.420Z,3828.00
2023-05-15T10:33:58.388Z,3776.00
2023-05-15T10:34:58.396Z,3764.00
2023-05-15T10:35:58.388Z,3836.00
2023-05-15T10:36:58.395Z,4004.00
2023-05-15T10:37:58.384Z,4260.00
2023-05-15T10:38:58.375Z,4584.00
2023-05-15T10:39:58.377Z,4920.00
2023-05-15T10:41:13.172Z,5264.00
2023-05-15T10:41:58.371Z,5560.00
2023-05-15T10:42:58.365Z,5888.00
2023-05-15T10:43:58.361Z,6320.00
2023-05-15T10:44:58.360Z,6784.00
2023-05-15T10:45:58.364Z,7224.00
2023-05-15T10:46:58.416Z,7544.00
2023-05-15T10:47:58.383Z,7796.00
2023-05-15T10:48:58.365Z,8088.00
2023-05-15T10:49:58.352Z,8408.00
2023-05-15T10:50:58.343Z,8748.00
2023-05-15T10:51:58.337Z,9236.00
2023-05-15T10:52:58.341Z,9748.00
2023-05-15T10:53:58.337Z,10056.00
2023-05-15T10:54:58.348Z,10276.00
2023-05-15T10:55:58.385Z,10624.00
2023-05-15T10:56:58.328Z,11092.00
2023-05-15T10:57:58.325Z,11728.00
2023-05-15T10:58:58.323Z,12376.00
2023-05-15T10:59:58.326Z,12732.00
2023-05-15T11:00:58.329Z,12992.00
2023-05-15T11:01:58.311Z,13032.00
2023-05-15T11:02:58.391Z,12856.00
2023-05-15T11:03:58.317Z,12720.00
2023-05-15T11:04:58.308Z,12624.00
2023-05-15T11:05:58.304Z,12556.00
2023-05-15T11:06:58.305Z,12244.00
2023-05-15T11:07:58.296Z,12076.00
2023-05-15T11:08:58.296Z,12008.00
2023-05-15T11:09:58.293Z,11872.00
2023-05-15T11:10:58.291Z,11740.00
2023-05-15T11:11:58.316Z,11484.00
2023-05-15T11:12:58.287Z,11136.00
2023-05-15T11:13:58.282Z,10708.00
2023-05-15T11:14:58.282Z,10436.00
2023-05-15T11:15:58.281Z,10284.00
2023-05-15T11:16:58.364Z,10124.00
2023-05-15T11:17:58.306Z,10068.00
2023-05-15T11:18:58.312Z,10140.00
2023-05-15T11:19:58.276Z,10236.00
2023-05-15T11:20:58.268Z,10416.00
2023-05-15T11:21:58.275Z,10576.00
2023-05-15T11:22:58.268Z,10904.00
2023-05-15T11:23:58.261Z,11516.00
2023-05-15T11:24:58.265Z,12236.00
2023-05-15T11:25:58.281Z,12716.00
2023-05-15T11:26:59.247Z,12876.00
2023-05-15T11:27:58.265Z,12816.00
2023-05-15T11:28:58.254Z,12476.00
2023-05-15T11:29:58.250Z,12408.00
2023-05-15T11:30:58.299Z,12076.00
2023-05-15T11:31:58.248Z,11424.00
2023-05-15T11:32:58.378Z,10876.00
2023-05-15T11:33:58.245Z,10096.00
2023-05-15T11:34:58.247Z,9464.00
2023-05-15T11:35:58.260Z,8856.00
2023-05-15T11:36:58.246Z,7984.00
2023-05-15T11:37:58.242Z,7440.00
2023-05-15T11:38:58.238Z,7048.00
2023-05-15T11:39:58.241Z,6868.00
2023-05-15T11:40:58.242Z,6728.00
2023-05-15T11:41:59.288Z,6632.00
2023-05-15T11:42:58.234Z,6560.00
2023-05-15T11:43:58.234Z,6640.00
2023-05-15T11:44:58.234Z,6852.00
2023-05-15T11:45:58.342Z,7200.00
2023-05-15T11:46:58.250Z,7368.00
2023-05-15T11:47:58.304Z,7476.00
2023-05-15T11:49:00.067Z,7772.00
2023-05-15T11:49:58.224Z,7620.00
2023-05-15T11:50:58.223Z,6828.00
2023-05-15T11:51:58.218Z,6348.00
2023-05-15T11:52:58.218Z,6084.00
2023-05-15T11:53:58.218Z,5972.00
2023-05-15T11:54:58.221Z,6112.00
2023-05-15T11:55:58.218Z,6488.00
2023-05-15T11:56:58.218Z,6860.00
2023-05-15T11:57:58.222Z,7092.00
2023-05-15T11:58:58.222Z,7152.00
2023-05-15T11:59:58.216Z,7404.00
2023-05-15T12:00:58.209Z,7168.00
2023-05-15T12:01:58.209Z,6784.00
2023-05-15T12:02:58.300Z,6388.00
2023-05-15T12:03:58.645Z,6060.00
2023-05-15T12:04:58.238Z,5824.00
2023-05-15T12:06:00.186Z,5632.00
2023-05-15T12:06:58.304Z,5348.00
2023-05-15T12:07:58.196Z,5176.00
2023-05-15T12:08:58.202Z,4952.00
2023-05-15T12:09:58.197Z,4788.00
2023-05-15T12:10:58.199Z,4580.00
2023-05-15T12:11:58.193Z,4768.00
2023-05-15T12:12:58.190Z,4456.00
2023-05-15T12:13:58.191Z,4484.00
2023-05-15T12:14:58.189Z,4224.00
2023-05-15T12:15:58.258Z,4136.00
2023-05-15T12:16:58.345Z,4264.00
2023-05-15T12:17:58.218Z,4288.00
2023-05-15T12:18:58.232Z,4548.00
2023-05-15T12:19:58.184Z,4612.00
2023-05-15T12:20:58.187Z,4736.00
2023-05-15T12:21:58.192Z,4920.00
2023-05-15T12:22:58.177Z,5168.00
2023-05-15T12:24:58.174Z,5596.00
2023-05-15T12:25:58.171Z,5736.00
2023-05-15T12:26:58.166Z,5896.00
2023-05-15T12:27:58.168Z,5980.00
2023-05-15T12:28:58.167Z,6132.00
2023-05-15T12:29:58.167Z,6180.00
2023-05-15T12:30:58.173Z,6048.00
2023-05-15T12:31:58.199Z,5700.00
2023-05-15T12:32:58.217Z,5236.00
2023-05-15T12:33:58.158Z,4900.00
2023-05-15T12:34:58.155Z,4508.00
2023-05-15T12:36:01.072Z,4008.00
2023-05-15T12:36:58.151Z,3720.00
2023-05-15T12:37:58.150Z,3612.00
2023-05-15T12:38:58.152Z,3636.00
2023-05-15T12:39:58.148Z,3652.00
2023-05-15T12:40:58.146Z,3776.00
2023-05-15T12:41:58.150Z,3988.00
2023-05-15T12:42:58.146Z,4176.00
2023-05-15T12:43:58.142Z,4408.00
2023-05-15T12:44:58.139Z,4852.00
2023-05-15T12:45:58.206Z,5008.00
2023-05-15T12:46:58.140Z,4944.00
2023-05-15T12:47:58.235Z,4960.00
2023-05-15T12:48:58.141Z,5016.00
2023-05-15T12:49:58.129Z,5032.00
2023-05-15T12:50:58.129Z,5044.00
2023-05-15T12:51:58.146Z,5352.00
2023-05-15T12:52:58.140Z,5468.00
2023-05-15T12:53:58.146Z,5596.00
2023-05-15T12:54:58.131Z,5744.00
2023-05-15T12:55:58.120Z,5904.00
2023-05-15T12:56:59.248Z,6108.00
2023-05-15T12:57:58.122Z,6252.00
2023-05-15T12:58:58.118Z,6488.00
2023-05-15T12:59:58.112Z,6764.00
2023-05-15T13:00:58.137Z,6948.00
2023-05-15T13:01:58.153Z,7448.00
2023-05-15T13:02:58.188Z,8012.00
2023-05-15T13:03:58.141Z,8528.00
2023-05-15T13:04:58.097Z,8928.00
2023-05-15T13:05:58.101Z,8976.00
2023-05-15T13:06:58.101Z,9092.00
2023-05-15T13:07:58.094Z,9028.00
2023-05-15T13:08:58.094Z,9092.00
2023-05-15T13:09:58.090Z,8876.00
2023-05-15T13:10:58.120Z,8688.00
2023-05-15T13:11:58.092Z,8872.00
2023-05-15T13:12:58.098Z,9096.00
2023-05-15T13:13:58.126Z,9264.00
2023-05-15T13:14:58.086Z,9560.00
2023-05-15T13:15:58.117Z,10104.00
2023-05-15T13:16:58.085Z,10620.00
2023-05-15T13:17:58.113Z,11048.00
2023-05-15T13:18:58.100Z,11396.00
2023-05-15T13:19:58.079Z,11840.00
2023-05-15T13:20:58.091Z,12140.00
2023-05-15T13:21:58.077Z,12392.00
2023-05-15T13:22:58.074Z,12208.00
2023-05-15T13:23:58.178Z,11560.00
2023-05-15T13:24:58.117Z,11116.00
2023-05-15T13:25:58.076Z,10524.00
2023-05-15T13:26:58.076Z,10228.00
2023-05-15T13:27:58.086Z,9684.00
2023-05-15T13:28:58.076Z,9012.00
2023-05-15T13:29:58.075Z,8392.00
2023-05-15T13:30:58.124Z,7528.00
2023-05-15T13:31:58.107Z,6608.00
2023-05-15T13:32:58.116Z,6140.00
2023-05-15T13:33:58.073Z,5508.00
2023-05-15T13:34:58.071Z,4560.00
2023-05-15T13:35:58.072Z,3680.00
2023-05-15T13:36:58.083Z,3360.00
2023-05-15T13:37:58.072Z,3364.00
2023-05-15T13:38:58.070Z,3752.00
2023-05-15T13:39:58.072Z,4392.00
2023-05-15T13:40:58.083Z,4560.00
2023-05-15T13:41:58.071Z,4400.00
2023-05-15T13:42:58.066Z,4140.00
2023-05-15T13:43:58.067Z,3888.00
2023-05-15T13:44:58.062Z,3520.00
2023-05-15T13:45:58.075Z,3424.00
2023-05-15T13:46:58.073Z,3568.00
2023-05-15T13:47:58.069Z,3848.00
2023-05-15T13:48:58.053Z,4408.00
2023-05-15T13:49:58.055Z,5016.00
2023-05-15T13:50:58.064Z,5596.00
2023-05-15T13:51:58.045Z,6356.00
2023-05-15T13:52:58.045Z,7048.00
2023-05-15T13:53:58.037Z,7464.00
2023-05-15T13:54:58.033Z,7588.00
2023-05-15T13:55:58.049Z,7680.00
2023-05-15T13:56:58.029Z,7748.00
2023-05-15T13:57:58.033Z,7564.00
2023-05-15T13:58:58.020Z,7440.00
2023-05-15T13:59:58.019Z,7028.00
2023-05-15T14:00:58.046Z,6656.00
2023-05-15T14:01:58.008Z,6584.00
2023-05-15T14:02:58.004Z,6624.00
2023-05-15T14:03:58.088Z,6672.00
2023-05-15T14:04:57.997Z,6720.00
2023-05-15T14:05:57.992Z,6772.00
2023-05-15T14:06:57.989Z,6836.00
2023-05-15T14:07:57.987Z,6924.00
2023-05-15T14:08:58.000Z,7188.00
2023-05-15T14:09:57.973Z,7684.00
2023-05-15T14:10:57.971Z,8452.00
2023-05-15T14:11:57.990Z,9152.00
2023-05-15T14:12:59.396Z,9352.00
2023-05-15T14:13:57.959Z,9160.00
2023-05-15T14:14:57.953Z,8784.00
2023-05-15T14:15:57.947Z,8496.00
2023-05-15T14:16:58.047Z,8468.00
2023-05-15T14:17:57.977Z,8532.00
2023-05-15T14:18:57.972Z,8316.00
2023-05-15T14:19:57.938Z,8128.00
2023-05-15T14:20:57.924Z,8008.00
2023-05-15T14:21:57.923Z,7988.00
2023-05-15T14:22:57.920Z,8124.00
2023-05-15T14:23:57.917Z,8372.00
2023-05-15T14:24:57.906Z,8488.00
2023-05-15T14:25:57.900Z,8580.00
2023-05-15T14:26:57.901Z,8732.00
2023-05-15T14:27:57.905Z,8812.00
2023-05-15T14:28:57.900Z,8896.00
2023-05-15T14:29:57.880Z,9020.00
2023-05-15T14:30:57.888Z,9244.00
2023-05-15T14:31:57.915Z,9260.00
2023-05-15T14:32:57.964Z,9612.00
2023-05-15T14:33:57.867Z,9372.00
2023-05-15T14:34:57.869Z,8644.00
2023-05-15T14:35:57.873Z,8348.00
2023-05-15T14:36:57.864Z,8040.00
2023-05-15T14:37:57.858Z,7852.00
2023-05-15T14:39:00.219Z,7740.00
2023-05-15T14:39:57.858Z,7336.00
2023-05-15T14:40:57.848Z,6560.00
2023-05-15T14:41:57.834Z,5820.00
2023-05-15T14:42:57.831Z,5316.00
2023-05-15T14:43:57.826Z,4944.00
2023-05-15T14:44:57.829Z,4600.00
2023-05-15T14:45:57.869Z,4360.00
2023-05-15T14:46:57.892Z,4196.00
2023-05-15T14:47:57.886Z,4028.00
2023-05-15T14:48:57.816Z,3872.00
2023-05-15T14:49:57.801Z,3864.00
2023-05-15T14:50:57.792Z,3740.00
2023-05-15T14:51:57.789Z,3800.00
2023-05-15T14:52:57.790Z,3932.00
2023-05-15T14:53:57.789Z,4240.00
2023-05-15T14:55:08.722Z,4628.00
2023-05-15T14:55:57.773Z,5416.00
2023-05-15T14:56:57.954Z,5996.00
2023-05-15T14:57:57.767Z,6716.00
2023-05-15T14:58:57.802Z,7400.00
2023-05-15T14:59:57.756Z,7680.00
2023-05-15T15:00:57.754Z,7880.00
2023-05-15T15:01:57.802Z,7996.00
2023-05-15T15:02:57.828Z,8004.00
2023-05-15T15:03:57.862Z,8020.00
2023-05-15T15:04:57.741Z,7964.00
2023-05-15T15:05:57.736Z,8000.00
2023-05-15T15:06:57.726Z,8220.00
2023-05-15T15:07:57.722Z,8656.00